sensor_id;sensor_type;location;lat;lon;timestamp;P1;durP1;ratioP1;P2;durP2;ratioP2
31732;SDS011;18312;51.486;7.144;2022-09-29T00:02:02;26.15;;;12.50;;
31732;SDS011;18312;51.486;7.144;2022-09-29T00:04:29;27.58;;;12.20;;
31732;SDS011;18312;51.486;7.144;2022-09-29T00:06:56;25.67;;;12.32;;
31732;SDS011;18312;51.486;7.144;2022-09-29T00:09:24;28.35;;;12.52;;
31732;SDS011;18312;51.486;7.144;2022-09-29T00:11:52;30.67;;;11.23;;
31732;SDS011;18312;51.486;7.144;2022-09-29T00:14:19;22.58;;;10.60;;
31732;SDS011;18312;51.486;7.144;2022-09-29T00:16:46;26.98;;;12.77;;
31732;SDS011;18312;51.486;7.144;2022-09-29T00:19:17;29.05;;;12.98;;
31732;SDS011;18312;51.486;7.144;2022-09-29T00:21:44;31.48;;;13.82;;
31732;SDS011;18312;51.486;7.144;2022-09-29T00:24:11;31.48;;;13.73;;
31732;SDS011;18312;51.486;7.144;2022-09-29T00:26:39;31.60;;;12.75;;
31732;SDS011;18312;51.486;7.144;2022-09-29T00:29:08;27.92;;;11.27;;
31732;SDS011;18312;51.486;7.144;2022-09-29T00:31:35;29.52;;;13.23;;
31732;SDS011;18312;51.486;7.144;2022-09-29T00:34:02;23.83;;;11.70;;
31732;SDS011;18312;51.486;7.144;2022-09-29T00:36:29;28.40;;;12.48;;
31732;SDS011;18312;51.486;7.144;2022-09-29T00:38:56;25.98;;;11.32;;
31732;SDS011;18312;51.486;7.144;2022-09-29T00:41:24;24.20;;;10.60;;
31732;SDS011;18312;51.486;7.144;2022-09-29T00:43:54;20.55;;;9.90;;
31732;SDS011;18312;51.486;7.144;2022-09-29T00:46:25;24.05;;;10.50;;
31732;SDS011;18312;51.486;7.144;2022-09-29T00:48:59;26.13;;;12.93;;
31732;SDS011;18312;51.486;7.144;2022-09-29T00:51:29;30.42;;;13.75;;
31732;SDS011;18312;51.486;7.144;2022-09-29T00:54:00;30.50;;;13.18;;
31732;SDS011;18312;51.486;7.144;2022-09-29T00:56:28;30.98;;;13.68;;
31732;SDS011;18312;51.486;7.144;2022-09-29T00:58:57;31.85;;;13.55;;
31732;SDS011;18312;51.486;7.144;2022-09-29T01:01:29;29.58;;;14.30;;
31732;SDS011;18312;51.486;7.144;2022-09-29T01:03:58;33.50;;;15.60;;
31732;SDS011;18312;51.486;7.144;2022-09-29T01:06:31;39.83;;;14.63;;
31732;SDS011;18312;51.486;7.144;2022-09-29T01:09:02;41.83;;;15.07;;
31732;SDS011;18312;51.486;7.144;2022-09-29T01:11:30;29.45;;;12.93;;
31732;SDS011;18312;51.486;7.144;2022-09-29T01:14:05;29.20;;;13.27;;
31732;SDS011;18312;51.486;7.144;2022-09-29T01:16:33;31.15;;;14.98;;
31732;SDS011;18312;51.486;7.144;2022-09-29T01:19:02;28.40;;;13.05;;
31732;SDS011;18312;51.486;7.144;2022-09-29T01:21:33;23.08;;;10.85;;
31732;SDS011;18312;51.486;7.144;2022-09-29T01:27:21;33.85;;;12.60;;
31732;SDS011;18312;51.486;7.144;2022-09-29T01:30:09;26.98;;;12.88;;
31732;SDS011;18312;51.486;7.144;2022-09-29T01:32:58;31.08;;;13.38;;
31732;SDS011;18312;51.486;7.144;2022-09-29T01:35:42;27.27;;;13.05;;
31732;SDS011;18312;51.486;7.144;2022-09-29T01:38:21;24.00;;;11.55;;
31732;SDS011;18312;51.486;7.144;2022-09-29T01:41:00;29.13;;;11.75;;
31732;SDS011;18312;51.486;7.144;2022-09-29T01:43:32;27.50;;;12.02;;
31732;SDS011;18312;51.486;7.144;2022-09-29T01:46:03;29.92;;;11.70;;
31732;SDS011;18312;51.486;7.144;2022-09-29T01:48:37;29.77;;;12.85;;
31732;SDS011;18312;51.486;7.144;2022-09-29T01:51:10;30.15;;;12.48;;
31732;SDS011;18312;51.486;7.144;2022-09-29T01:53:41;25.83;;;12.43;;
31732;SDS011;18312;51.486;7.144;2022-09-29T01:56:13;31.98;;;13.38;;
31732;SDS011;18312;51.486;7.144;2022-09-29T01:58:45;37.03;;;13.48;;
31732;SDS011;18312;51.486;7.144;2022-09-29T02:01:16;32.72;;;12.93;;
31732;SDS011;18312;51.486;7.144;2022-09-29T02:03:48;34.05;;;13.55;;
31732;SDS011;18312;51.486;7.144;2022-09-29T02:06:20;26.73;;;13.55;;
31732;SDS011;18312;51.486;7.144;2022-09-29T02:08:51;34.33;;;13.88;;
31732;SDS011;18312;51.486;7.144;2022-09-29T02:11:19;29.53;;;13.10;;
31732;SDS011;18312;51.486;7.144;2022-09-29T02:13:50;26.20;;;13.15;;
31732;SDS011;18312;51.486;7.144;2022-09-29T02:16:22;31.85;;;13.05;;
31732;SDS011;18312;51.486;7.144;2022-09-29T02:21:20;30.80;;;12.98;;
31732;SDS011;18312;51.486;7.144;2022-09-29T02:23:48;26.15;;;12.07;;
31732;SDS011;18312;51.486;7.144;2022-09-29T02:26:15;30.55;;;13.75;;
31732;SDS011;18312;51.486;7.144;2022-09-29T02:28:43;31.95;;;13.05;;
31732;SDS011;18312;51.486;7.144;2022-09-29T02:31:10;30.40;;;12.70;;
31732;SDS011;18312;51.486;7.144;2022-09-29T02:33:37;34.30;;;13.60;;
31732;SDS011;18312;51.486;7.144;2022-09-29T02:36:09;39.72;;;14.68;;
31732;SDS011;18312;51.486;7.144;2022-09-29T02:38:46;36.57;;;13.40;;
31732;SDS011;18312;51.486;7.144;2022-09-29T02:41:27;37.70;;;15.70;;
31732;SDS011;18312;51.486;7.144;2022-09-29T02:44:08;46.83;;;17.20;;
31732;SDS011;18312;51.486;7.144;2022-09-29T02:46:49;39.30;;;16.23;;
31732;SDS011;18312;51.486;7.144;2022-09-29T02:49:42;39.10;;;15.18;;
31732;SDS011;18312;51.486;7.144;2022-09-29T02:52:21;35.45;;;14.88;;
31732;SDS011;18312;51.486;7.144;2022-09-29T02:54:54;39.15;;;15.77;;
31732;SDS011;18312;51.486;7.144;2022-09-29T02:57:30;33.45;;;15.63;;
31732;SDS011;18312;51.486;7.144;2022-09-29T03:00:05;43.13;;;16.35;;
31732;SDS011;18312;51.486;7.144;2022-09-29T03:02:35;34.22;;;13.38;;
31732;SDS011;18312;51.486;7.144;2022-09-29T03:05:03;30.75;;;15.35;;
31732;SDS011;18312;51.486;7.144;2022-09-29T03:07:32;43.90;;;15.57;;
31732;SDS011;18312;51.486;7.144;2022-09-29T03:12:28;30.67;;;13.63;;
31732;SDS011;18312;51.486;7.144;2022-09-29T03:14:54;39.55;;;15.52;;
31732;SDS011;18312;51.486;7.144;2022-09-29T03:17:21;40.83;;;14.60;;
31732;SDS011;18312;51.486;7.144;2022-09-29T03:19:48;38.67;;;14.38;;
31732;SDS011;18312;51.486;7.144;2022-09-29T03:22:15;30.08;;;12.90;;
31732;SDS011;18312;51.486;7.144;2022-09-29T03:24:44;29.80;;;12.90;;
31732;SDS011;18312;51.486;7.144;2022-09-29T03:27:11;32.28;;;14.25;;
31732;SDS011;18312;51.486;7.144;2022-09-29T03:29:38;29.35;;;14.27;;
31732;SDS011;18312;51.486;7.144;2022-09-29T03:32:04;34.00;;;14.43;;
31732;SDS011;18312;51.486;7.144;2022-09-29T03:34:31;32.13;;;13.43;;
31732;SDS011;18312;51.486;7.144;2022-09-29T03:36:58;30.58;;;13.35;;
31732;SDS011;18312;51.486;7.144;2022-09-29T03:39:25;35.08;;;15.02;;
31732;SDS011;18312;51.486;7.144;2022-09-29T03:41:54;28.33;;;12.57;;
31732;SDS011;18312;51.486;7.144;2022-09-29T03:44:20;31.27;;;12.40;;
31732;SDS011;18312;51.486;7.144;2022-09-29T03:46:47;36.20;;;14.25;;
31732;SDS011;18312;51.486;7.144;2022-09-29T03:49:14;38.58;;;14.80;;
31732;SDS011;18312;51.486;7.144;2022-09-29T03:51:42;26.80;;;12.65;;
31732;SDS011;18312;51.486;7.144;2022-09-29T03:54:09;27.80;;;11.82;;
31732;SDS011;18312;51.486;7.144;2022-09-29T03:56:37;28.40;;;12.30;;
31732;SDS011;18312;51.486;7.144;2022-09-29T03:59:05;35.25;;;14.25;;
31732;SDS011;18312;51.486;7.144;2022-09-29T04:01:33;36.60;;;14.00;;
31732;SDS011;18312;51.486;7.144;2022-09-29T04:04:00;42.85;;;16.63;;
31732;SDS011;18312;51.486;7.144;2022-09-29T04:06:27;41.38;;;15.88;;
31732;SDS011;18312;51.486;7.144;2022-09-29T04:08:54;48.78;;;15.70;;
31732;SDS011;18312;51.486;7.144;2022-09-29T04:11:20;40.85;;;15.38;;
31732;SDS011;18312;51.486;7.144;2022-09-29T04:13:47;42.10;;;16.33;;
31732;SDS011;18312;51.486;7.144;2022-09-29T04:16:15;35.15;;;15.75;;
31732;SDS011;18312;51.486;7.144;2022-09-29T04:18:42;42.85;;;16.52;;
31732;SDS011;18312;51.486;7.144;2022-09-29T04:21:08;40.22;;;15.63;;
31732;SDS011;18312;51.486;7.144;2022-09-29T04:23:37;43.80;;;15.57;;
31732;SDS011;18312;51.486;7.144;2022-09-29T04:26:04;39.88;;;15.35;;
31732;SDS011;18312;51.486;7.144;2022-09-29T04:28:32;42.22;;;14.85;;
31732;SDS011;18312;51.486;7.144;2022-09-29T04:31:00;39.63;;;16.05;;
31732;SDS011;18312;51.486;7.144;2022-09-29T04:33:29;35.03;;;15.45;;
31732;SDS011;18312;51.486;7.144;2022-09-29T04:35:56;44.22;;;14.30;;
31732;SDS011;18312;51.486;7.144;2022-09-29T04:38:23;37.42;;;15.65;;
31732;SDS011;18312;51.486;7.144;2022-09-29T04:40:50;38.10;;;14.55;;
31732;SDS011;18312;51.486;7.144;2022-09-29T04:43:16;30.25;;;13.25;;
31732;SDS011;18312;51.486;7.144;2022-09-29T04:45:43;29.85;;;13.35;;
31732;SDS011;18312;51.486;7.144;2022-09-29T04:48:10;32.88;;;13.82;;
31732;SDS011;18312;51.486;7.144;2022-09-29T04:50:38;35.13;;;14.15;;
31732;SDS011;18312;51.486;7.144;2022-09-29T04:53:05;41.40;;;14.30;;
31732;SDS011;18312;51.486;7.144;2022-09-29T04:55:32;39.22;;;15.88;;
31732;SDS011;18312;51.486;7.144;2022-09-29T04:58:01;44.10;;;16.90;;
31732;SDS011;18312;51.486;7.144;2022-09-29T05:00:28;44.65;;;16.70;;
31732;SDS011;18312;51.486;7.144;2022-09-29T05:02:56;45.47;;;16.92;;
31732;SDS011;18312;51.486;7.144;2022-09-29T05:05:24;43.05;;;15.85;;
31732;SDS011;18312;51.486;7.144;2022-09-29T05:07:52;41.30;;;16.80;;
31732;SDS011;18312;51.486;7.144;2022-09-29T05:10:19;43.42;;;16.30;;
31732;SDS011;18312;51.486;7.144;2022-09-29T05:12:46;40.05;;;15.90;;
31732;SDS011;18312;51.486;7.144;2022-09-29T05:15:14;41.97;;;15.88;;
31732;SDS011;18312;51.486;7.144;2022-09-29T05:17:41;32.55;;;13.35;;
31732;SDS011;18312;51.486;7.144;2022-09-29T05:20:08;32.00;;;12.45;;
31732;SDS011;18312;51.486;7.144;2022-09-29T05:22:35;30.73;;;13.95;;
31732;SDS011;18312;51.486;7.144;2022-09-29T05:25:03;38.17;;;15.52;;
31732;SDS011;18312;51.486;7.144;2022-09-29T05:27:32;25.17;;;11.70;;
31732;SDS011;18312;51.486;7.144;2022-09-29T05:29:59;39.65;;;14.95;;
31732;SDS011;18312;51.486;7.144;2022-09-29T05:32:26;38.53;;;15.30;;
31732;SDS011;18312;51.486;7.144;2022-09-29T05:34:53;46.80;;;16.27;;
31732;SDS011;18312;51.486;7.144;2022-09-29T05:37:19;37.85;;;15.68;;
31732;SDS011;18312;51.486;7.144;2022-09-29T05:39:46;45.88;;;17.60;;
31732;SDS011;18312;51.486;7.144;2022-09-29T05:42:14;36.63;;;14.95;;
31732;SDS011;18312;51.486;7.144;2022-09-29T05:44:41;42.03;;;15.32;;
31732;SDS011;18312;51.486;7.144;2022-09-29T05:47:07;38.83;;;15.35;;
31732;SDS011;18312;51.486;7.144;2022-09-29T05:49:36;36.45;;;15.57;;
31732;SDS011;18312;51.486;7.144;2022-09-29T05:52:03;40.85;;;17.13;;
31732;SDS011;18312;51.486;7.144;2022-09-29T05:54:30;50.50;;;16.58;;
31732;SDS011;18312;51.486;7.144;2022-09-29T05:56:56;44.47;;;15.48;;
31732;SDS011;18312;51.486;7.144;2022-09-29T05:59:24;54.17;;;17.85;;
31732;SDS011;18312;51.486;7.144;2022-09-29T06:01:51;41.47;;;17.00;;
31732;SDS011;18312;51.486;7.144;2022-09-29T06:04:18;43.22;;;17.38;;
31732;SDS011;18312;51.486;7.144;2022-09-29T06:06:44;46.40;;;18.67;;
31732;SDS011;18312;51.486;7.144;2022-09-29T06:09:12;37.65;;;16.67;;
31732;SDS011;18312;51.486;7.144;2022-09-29T06:11:39;43.65;;;15.75;;
31732;SDS011;18312;51.486;7.144;2022-09-29T06:14:06;45.15;;;18.02;;
31732;SDS011;18312;51.486;7.144;2022-09-29T06:16:34;52.08;;;19.38;;
31732;SDS011;18312;51.486;7.144;2022-09-29T06:19:01;52.00;;;20.25;;
31732;SDS011;18312;51.486;7.144;2022-09-29T06:21:29;50.75;;;20.67;;
31732;SDS011;18312;51.486;7.144;2022-09-29T06:23:58;51.60;;;19.35;;
31732;SDS011;18312;51.486;7.144;2022-09-29T06:26:26;50.70;;;19.77;;
31732;SDS011;18312;51.486;7.144;2022-09-29T06:28:53;48.28;;;21.10;;
31732;SDS011;18312;51.486;7.144;2022-09-29T06:31:21;50.30;;;19.75;;
31732;SDS011;18312;51.486;7.144;2022-09-29T06:33:50;50.45;;;20.98;;
31732;SDS011;18312;51.486;7.144;2022-09-29T06:36:20;54.40;;;18.73;;
31732;SDS011;18312;51.486;7.144;2022-09-29T06:39:08;37.55;;;16.48;;
31732;SDS011;18312;51.486;7.144;2022-09-29T06:41:36;38.38;;;18.05;;
31732;SDS011;18312;51.486;7.144;2022-09-29T06:44:03;44.58;;;17.42;;
31732;SDS011;18312;51.486;7.144;2022-09-29T06:46:29;49.10;;;20.58;;
31732;SDS011;18312;51.486;7.144;2022-09-29T06:48:58;54.42;;;21.65;;
31732;SDS011;18312;51.486;7.144;2022-09-29T06:51:25;61.75;;;22.10;;
31732;SDS011;18312;51.486;7.144;2022-09-29T06:53:52;53.45;;;20.65;;
31732;SDS011;18312;51.486;7.144;2022-09-29T06:56:19;54.85;;;21.35;;
31732;SDS011;18312;51.486;7.144;2022-09-29T06:58:46;56.75;;;21.58;;
31732;SDS011;18312;51.486;7.144;2022-09-29T07:01:13;52.08;;;21.38;;
31732;SDS011;18312;51.486;7.144;2022-09-29T07:03:40;44.20;;;20.00;;
31732;SDS011;18312;51.486;7.144;2022-09-29T07:06:08;57.78;;;22.13;;
31732;SDS011;18312;51.486;7.144;2022-09-29T07:08:36;53.85;;;20.48;;
31732;SDS011;18312;51.486;7.144;2022-09-29T07:11:04;47.65;;;20.35;;
31732;SDS011;18312;51.486;7.144;2022-09-29T07:13:32;50.05;;;18.63;;
31732;SDS011;18312;51.486;7.144;2022-09-29T07:16:02;48.00;;;18.83;;
31732;SDS011;18312;51.486;7.144;2022-09-29T07:18:31;38.90;;;15.75;;
31732;SDS011;18312;51.486;7.144;2022-09-29T07:20:59;40.67;;;16.73;;
31732;SDS011;18312;51.486;7.144;2022-09-29T07:23:27;31.98;;;15.32;;
31732;SDS011;18312;51.486;7.144;2022-09-29T07:25:54;31.20;;;13.85;;
31732;SDS011;18312;51.486;7.144;2022-09-29T07:28:21;28.77;;;13.27;;
31732;SDS011;18312;51.486;7.144;2022-09-29T07:30:56;25.73;;;12.50;;
31732;SDS011;18312;51.486;7.144;2022-09-29T07:33:24;27.20;;;12.77;;
31732;SDS011;18312;51.486;7.144;2022-09-29T07:35:51;20.67;;;11.85;;
31732;SDS011;18312;51.486;7.144;2022-09-29T07:38:17;23.27;;;11.95;;
31732;SDS011;18312;51.486;7.144;2022-09-29T07:40:46;23.80;;;11.23;;
31732;SDS011;18312;51.486;7.144;2022-09-29T07:43:12;27.75;;;12.18;;
31732;SDS011;18312;51.486;7.144;2022-09-29T07:45:44;24.17;;;10.48;;
31732;SDS011;18312;51.486;7.144;2022-09-29T07:48:13;22.98;;;10.57;;
31732;SDS011;18312;51.486;7.144;2022-09-29T07:50:41;23.95;;;11.00;;
31732;SDS011;18312;51.486;7.144;2022-09-29T07:53:08;22.10;;;10.65;;
31732;SDS011;18312;51.486;7.144;2022-09-29T07:55:35;19.15;;;10.00;;
31732;SDS011;18312;51.486;7.144;2022-09-29T07:58:04;17.90;;;9.80;;
31732;SDS011;18312;51.486;7.144;2022-09-29T08:00:31;20.25;;;9.30;;
31732;SDS011;18312;51.486;7.144;2022-09-29T08:02:58;14.10;;;8.75;;
31732;SDS011;18312;51.486;7.144;2022-09-29T08:05:27;15.18;;;8.75;;
31732;SDS011;18312;51.486;7.144;2022-09-29T08:07:57;13.05;;;9.68;;
31732;SDS011;18312;51.486;7.144;2022-09-29T08:10:25;18.38;;;8.98;;
31732;SDS011;18312;51.486;7.144;2022-09-29T08:12:52;17.45;;;8.80;;
31732;SDS011;18312;51.486;7.144;2022-09-29T08:15:20;18.85;;;8.73;;
31732;SDS011;18312;51.486;7.144;2022-09-29T08:17:48;14.18;;;8.68;;
31732;SDS011;18312;51.486;7.144;2022-09-29T08:20:30;24.35;;;8.35;;
31732;SDS011;18312;51.486;7.144;2022-09-29T08:23:00;17.42;;;8.07;;
31732;SDS011;18312;51.486;7.144;2022-09-29T08:25:26;16.25;;;8.75;;
31732;SDS011;18312;51.486;7.144;2022-09-29T08:27:53;17.90;;;8.93;;
31732;SDS011;18312;51.486;7.144;2022-09-29T08:30:21;13.60;;;8.18;;
31732;SDS011;18312;51.486;7.144;2022-09-29T08:32:51;12.68;;;8.40;;
31732;SDS011;18312;51.486;7.144;2022-09-29T08:35:18;12.15;;;7.85;;
31732;SDS011;18312;51.486;7.144;2022-09-29T08:37:46;11.52;;;7.20;;
31732;SDS011;18312;51.486;7.144;2022-09-29T08:40:13;12.98;;;7.82;;
31732;SDS011;18312;51.486;7.144;2022-09-29T08:42:42;11.82;;;7.25;;
31732;SDS011;18312;51.486;7.144;2022-09-29T08:45:18;12.30;;;7.32;;
31732;SDS011;18312;51.486;7.144;2022-09-29T08:47:52;13.68;;;6.88;;
31732;SDS011;18312;51.486;7.144;2022-09-29T08:50:29;13.57;;;6.10;;
31732;SDS011;18312;51.486;7.144;2022-09-29T08:53:01;12.70;;;6.43;;
31732;SDS011;18312;51.486;7.144;2022-09-29T08:55:33;13.60;;;6.53;;
31732;SDS011;18312;51.486;7.144;2022-09-29T08:58:07;9.05;;;5.10;;
31732;SDS011;18312;51.486;7.144;2022-09-29T09:00:38;8.85;;;4.65;;
31732;SDS011;18312;51.486;7.144;2022-09-29T09:03:15;7.55;;;4.05;;
31732;SDS011;18312;51.486;7.144;2022-09-29T09:06:11;8.00;;;5.28;;
31732;SDS011;18312;51.486;7.144;2022-09-29T09:11:21;6.28;;;4.18;;
31732;SDS011;18312;51.486;7.144;2022-09-29T09:13:59;7.15;;;4.07;;
31732;SDS011;18312;51.486;7.144;2022-09-29T09:16:34;6.53;;;3.53;;
31732;SDS011;18312;51.486;7.144;2022-09-29T09:19:18;19.88;;;6.25;;
31732;SDS011;18312;51.486;7.144;2022-09-29T09:22:13;8.63;;;5.60;;
31732;SDS011;18312;51.486;7.144;2022-09-29T09:24:48;11.43;;;5.75;;
31732;SDS011;18312;51.486;7.144;2022-09-29T09:27:24;11.75;;;5.22;;
31732;SDS011;18312;51.486;7.144;2022-09-29T09:29:59;8.68;;;5.45;;
31732;SDS011;18312;51.486;7.144;2022-09-29T09:32:31;7.32;;;5.07;;
31732;SDS011;18312;51.486;7.144;2022-09-29T09:35:05;6.13;;;4.50;;
31732;SDS011;18312;51.486;7.144;2022-09-29T09:37:45;9.80;;;4.78;;
31732;SDS011;18312;51.486;7.144;2022-09-29T09:40:14;8.20;;;3.85;;
31732;SDS011;18312;51.486;7.144;2022-09-29T09:42:45;5.68;;;4.18;;
31732;SDS011;18312;51.486;7.144;2022-09-29T09:45:22;4.72;;;3.80;;
31732;SDS011;18312;51.486;7.144;2022-09-29T09:47:55;6.70;;;3.70;;
31732;SDS011;18312;51.486;7.144;2022-09-29T09:50:28;8.40;;;3.80;;
31732;SDS011;18312;51.486;7.144;2022-09-29T09:52:56;8.05;;;5.03;;
31732;SDS011;18312;51.486;7.144;2022-09-29T09:55:27;10.57;;;4.43;;
31732;SDS011;18312;51.486;7.144;2022-09-29T09:58:18;8.18;;;4.15;;
31732;SDS011;18312;51.486;7.144;2022-09-29T10:00:56;6.53;;;3.65;;
31732;SDS011;18312;51.486;7.144;2022-09-29T10:03:27;8.52;;;3.70;;
31732;SDS011;18312;51.486;7.144;2022-09-29T10:05:55;7.68;;;3.38;;
31732;SDS011;18312;51.486;7.144;2022-09-29T10:08:23;9.95;;;3.67;;
31732;SDS011;18312;51.486;7.144;2022-09-29T10:10:51;9.00;;;3.40;;
31732;SDS011;18312;51.486;7.144;2022-09-29T10:13:18;7.43;;;3.83;;
31732;SDS011;18312;51.486;7.144;2022-09-29T10:15:55;5.18;;;3.33;;
31732;SDS011;18312;51.486;7.144;2022-09-29T10:18:25;5.97;;;3.73;;
31732;SDS011;18312;51.486;7.144;2022-09-29T10:21:05;5.82;;;3.40;;
31732;SDS011;18312;51.486;7.144;2022-09-29T10:23:49;5.03;;;3.25;;
31732;SDS011;18312;51.486;7.144;2022-09-29T10:26:18;3.42;;;2.70;;
31732;SDS011;18312;51.486;7.144;2022-09-29T10:28:51;4.18;;;2.30;;
31732;SDS011;18312;51.486;7.144;2022-09-29T10:31:21;8.93;;;2.45;;
31732;SDS011;18312;51.486;7.144;2022-09-29T10:38:52;4.43;;;1.70;;
31732;SDS011;18312;51.486;7.144;2022-09-29T10:41:20;3.90;;;2.45;;
31732;SDS011;18312;51.486;7.144;2022-09-29T10:43:48;2.55;;;1.85;;
31732;SDS011;18312;51.486;7.144;2022-09-29T10:49:15;6.45;;;1.95;;
31732;SDS011;18312;51.486;7.144;2022-09-29T10:51:48;2.47;;;1.83;;
31732;SDS011;18312;51.486;7.144;2022-09-29T10:54:19;2.40;;;1.70;;
31732;SDS011;18312;51.486;7.144;2022-09-29T10:56:50;1.98;;;1.52;;
31732;SDS011;18312;51.486;7.144;2022-09-29T10:59:19;5.72;;;2.13;;
31732;SDS011;18312;51.486;7.144;2022-09-29T11:01:48;3.00;;;1.60;;
31732;SDS011;18312;51.486;7.144;2022-09-29T11:04:19;3.55;;;1.25;;
31732;SDS011;18312;51.486;7.144;2022-09-29T11:06:49;3.33;;;0.90;;
31732;SDS011;18312;51.486;7.144;2022-09-29T11:09:27;2.63;;;1.20;;
31732;SDS011;18312;51.486;7.144;2022-09-29T11:11:56;5.97;;;1.65;;
31732;SDS011;18312;51.486;7.144;2022-09-29T11:14:26;2.28;;;1.30;;
31732;SDS011;18312;51.486;7.144;2022-09-29T11:16:55;7.03;;;2.00;;
31732;SDS011;18312;51.486;7.144;2022-09-29T11:19:24;4.22;;;1.90;;
31732;SDS011;18312;51.486;7.144;2022-09-29T11:27:57;2.88;;;1.90;;
31732;SDS011;18312;51.486;7.144;2022-09-29T11:30:35;3.80;;;1.38;;
31732;SDS011;18312;51.486;7.144;2022-09-29T11:33:15;3.10;;;1.45;;
31732;SDS011;18312;51.486;7.144;2022-09-29T11:35:52;2.22;;;1.25;;
31732;SDS011;18312;51.486;7.144;2022-09-29T11:38:45;4.00;;;1.58;;
31732;SDS011;18312;51.486;7.144;2022-09-29T11:41:29;2.10;;;1.20;;
31732;SDS011;18312;51.486;7.144;2022-09-29T11:44:07;7.10;;;1.85;;
31732;SDS011;18312;51.486;7.144;2022-09-29T11:46:50;3.88;;;1.50;;
31732;SDS011;18312;51.486;7.144;2022-09-29T11:49:38;10.75;;;1.48;;
31732;SDS011;18312;51.486;7.144;2022-09-29T11:52:31;3.05;;;0.90;;
31732;SDS011;18312;51.486;7.144;2022-09-29T11:55:25;1.45;;;0.77;;
31732;SDS011;18312;51.486;7.144;2022-09-29T11:58:01;1.73;;;1.00;;
31732;SDS011;18312;51.486;7.144;2022-09-29T12:00:41;3.33;;;1.10;;
31732;SDS011;18312;51.486;7.144;2022-09-29T12:03:22;4.32;;;1.52;;
31732;SDS011;18312;51.486;7.144;2022-09-29T12:05:58;2.95;;;1.25;;
31732;SDS011;18312;51.486;7.144;2022-09-29T12:08:40;1.92;;;0.85;;
31732;SDS011;18312;51.486;7.144;2022-09-29T12:11:18;1.85;;;1.13;;
31732;SDS011;18312;51.486;7.144;2022-09-29T12:13:51;3.70;;;1.13;;
31732;SDS011;18312;51.486;7.144;2022-09-29T12:16:24;3.20;;;0.93;;
31732;SDS011;18312;51.486;7.144;2022-09-29T12:18:57;3.03;;;1.08;;
31732;SDS011;18312;51.486;7.144;2022-09-29T12:21:29;5.65;;;1.00;;
31732;SDS011;18312;51.486;7.144;2022-09-29T12:24:01;1.23;;;1.05;;
31732;SDS011;18312;51.486;7.144;2022-09-29T12:26:31;2.35;;;0.90;;
31732;SDS011;18312;51.486;7.144;2022-09-29T12:29:00;1.30;;;0.90;;
31732;SDS011;18312;51.486;7.144;2022-09-29T12:31:31;2.75;;;0.80;;
31732;SDS011;18312;51.486;7.144;2022-09-29T12:34:03;3.58;;;1.45;;
31732;SDS011;18312;51.486;7.144;2022-09-29T12:36:40;3.90;;;1.40;;
31732;SDS011;18312;51.486;7.144;2022-09-29T12:39:32;2.00;;;0.93;;
31732;SDS011;18312;51.486;7.144;2022-09-29T12:42:12;3.45;;;1.33;;
31732;SDS011;18312;51.486;7.144;2022-09-29T12:44:50;1.02;;;0.93;;
31732;SDS011;18312;51.486;7.144;2022-09-29T12:47:22;3.00;;;1.10;;
31732;SDS011;18312;51.486;7.144;2022-09-29T12:49:58;2.40;;;0.88;;
31732;SDS011;18312;51.486;7.144;2022-09-29T12:52:30;4.78;;;1.00;;
31732;SDS011;18312;51.486;7.144;2022-09-29T12:55:04;2.97;;;1.33;;
31732;SDS011;18312;51.486;7.144;2022-09-29T12:57:40;4.22;;;0.88;;
31732;SDS011;18312;51.486;7.144;2022-09-29T13:02:48;1.13;;;0.90;;
31732;SDS011;18312;51.486;7.144;2022-09-29T13:06:02;0.80;;;0.70;;
31732;SDS011;18312;51.486;7.144;2022-09-29T13:08:53;1.23;;;0.70;;
31732;SDS011;18312;51.486;7.144;2022-09-29T13:11:38;1.30;;;0.60;;
31732;SDS011;18312;51.486;7.144;2022-09-29T13:17:16;4.13;;;0.60;;
31732;SDS011;18312;51.486;7.144;2022-09-29T13:20:16;3.50;;;0.60;;
31732;SDS011;18312;51.486;7.144;2022-09-29T13:29:20;2.95;;;0.70;;
31732;SDS011;18312;51.486;7.144;2022-09-29T13:31:48;2.88;;;1.40;;
31732;SDS011;18312;51.486;7.144;2022-09-29T13:34:27;2.15;;;0.68;;
31732;SDS011;18312;51.486;7.144;2022-09-29T13:37:03;0.88;;;0.88;;
31732;SDS011;18312;51.486;7.144;2022-09-29T13:39:32;3.85;;;1.38;;
31732;SDS011;18312;51.486;7.144;2022-09-29T13:42:24;2.42;;;1.15;;
31732;SDS011;18312;51.486;7.144;2022-09-29T13:54:23;3.47;;;1.65;;
31732;SDS011;18312;51.486;7.144;2022-09-29T13:59:24;5.32;;;1.42;;
31732;SDS011;18312;51.486;7.144;2022-09-29T14:01:53;7.05;;;1.45;;
31732;SDS011;18312;51.486;7.144;2022-09-29T14:10:12;3.10;;;1.10;;
31732;SDS011;18312;51.486;7.144;2022-09-29T14:12:50;3.50;;;1.50;;
31732;SDS011;18312;51.486;7.144;2022-09-29T14:15:21;5.32;;;1.95;;
31732;SDS011;18312;51.486;7.144;2022-09-29T14:17:50;2.65;;;1.45;;
31732;SDS011;18312;51.486;7.144;2022-09-29T14:20:23;5.55;;;1.63;;
31732;SDS011;18312;51.486;7.144;2022-09-29T14:22:56;4.25;;;1.80;;
31732;SDS011;18312;51.486;7.144;2022-09-29T14:25:29;3.22;;;1.60;;
31732;SDS011;18312;51.486;7.144;2022-09-29T14:31:19;2.70;;;1.80;;
31732;SDS011;18312;51.486;7.144;2022-09-29T14:33:48;3.33;;;1.42;;
31732;SDS011;18312;51.486;7.144;2022-09-29T14:36:17;2.63;;;1.20;;
31732;SDS011;18312;51.486;7.144;2022-09-29T14:38:48;4.13;;;1.27;;
31732;SDS011;18312;51.486;7.144;2022-09-29T14:41:24;6.88;;;1.70;;
31732;SDS011;18312;51.486;7.144;2022-09-29T14:43:56;3.33;;;1.52;;
31732;SDS011;18312;51.486;7.144;2022-09-29T14:46:40;1.90;;;1.05;;
31732;SDS011;18312;51.486;7.144;2022-09-29T14:49:46;4.70;;;1.00;;
31732;SDS011;18312;51.486;7.144;2022-09-29T14:52:49;3.85;;;1.00;;
31732;SDS011;18312;51.486;7.144;2022-09-29T14:55:27;1.95;;;1.55;;
31732;SDS011;18312;51.486;7.144;2022-09-29T14:58:06;5.70;;;1.75;;
31732;SDS011;18312;51.486;7.144;2022-09-29T15:00:45;3.92;;;1.50;;
31732;SDS011;18312;51.486;7.144;2022-09-29T15:03:23;3.58;;;1.55;;
31732;SDS011;18312;51.486;7.144;2022-09-29T15:06:10;2.22;;;1.52;;
31732;SDS011;18312;51.486;7.144;2022-09-29T15:08:38;1.95;;;1.13;;
31732;SDS011;18312;51.486;7.144;2022-09-29T15:11:30;7.30;;;1.67;;
31732;SDS011;18312;51.486;7.144;2022-09-29T15:14:15;5.30;;;1.70;;
31732;SDS011;18312;51.486;7.144;2022-09-29T15:16:58;3.80;;;1.33;;
31732;SDS011;18312;51.486;7.144;2022-09-29T15:19:39;2.75;;;1.23;;
31732;SDS011;18312;51.486;7.144;2022-09-29T15:22:22;3.00;;;1.30;;
31732;SDS011;18312;51.486;7.144;2022-09-29T15:25:23;3.78;;;1.40;;
31732;SDS011;18312;51.486;7.144;2022-09-29T15:27:58;2.75;;;1.30;;
31732;SDS011;18312;51.486;7.144;2022-09-29T15:30:27;4.75;;;1.67;;
31732;SDS011;18312;51.486;7.144;2022-09-29T15:33:02;6.10;;;1.98;;
31732;SDS011;18312;51.486;7.144;2022-09-29T15:35:48;5.80;;;1.80;;
31732;SDS011;18312;51.486;7.144;2022-09-29T15:38:30;7.28;;;1.73;;
31732;SDS011;18312;51.486;7.144;2022-09-29T15:41:02;3.67;;;1.50;;
31732;SDS011;18312;51.486;7.144;2022-09-29T15:43:40;5.63;;;1.80;;
31732;SDS011;18312;51.486;7.144;2022-09-29T15:46:12;2.38;;;1.70;;
31732;SDS011;18312;51.486;7.144;2022-09-29T15:48:49;6.93;;;1.92;;
31732;SDS011;18312;51.486;7.144;2022-09-29T15:51:32;3.75;;;1.15;;
31732;SDS011;18312;51.486;7.144;2022-09-29T15:54:01;4.60;;;1.30;;
31732;SDS011;18312;51.486;7.144;2022-09-29T15:56:33;2.90;;;1.55;;
31732;SDS011;18312;51.486;7.144;2022-09-29T15:59:21;3.65;;;1.33;;
31732;SDS011;18312;51.486;7.144;2022-09-29T16:02:05;4.93;;;1.63;;